Time;durP1;ratioP1;P1;durP2;ratioP2;P2;SDS_P1;SDS_P2;PMS_P1;PMS_P2;Temp;Humidity;BMP_temperature;BMP_pressure;BME280_temperature;BME280_humidity;BME280_pressure;Samples;Min_cycle;Max_cycle;Signal;HPM_P1;HPM_P2
2021/07/10 00:02:01;;;;;;;5.32;4.47;;;17.40;87.40;;;;;;5083098;28;20024;-71
2021/07/10 00:04:29;;;;;;;5.75;5.07;;;17.30;87.50;;;;;;5086116;28;20052;-71
2021/07/10 00:06:58;;;;;;;4.80;4.30;;;17.30;87.70;;;;;;5085429;28;20492;-71
2021/07/10 00:09:24;;;;;;;6.00;5.35;;;17.30;87.80;;;;;;5083166;28;20016;-71
2021/07/10 00:11:49;;;;;;;7.05;6.13;;;17.30;87.80;;;;;;5086112;28;20354;-71
2021/07/10 00:14:15;;;;;;;8.27;6.20;;;17.30;88.00;;;;;;5085075;28;20458;-71
2021/07/10 00:16:40;;;;;;;8.15;6.85;;;17.30;88.20;;;;;;5086294;28;20492;-71
2021/07/10 00:19:06;;;;;;;8.60;7.53;;;17.20;88.50;;;;;;5082117;28;20492;-71
2021/07/10 00:21:31;;;;;;;9.77;8.27;;;17.20;88.70;;;;;;5087544;28;20032;-71
2021/07/10 00:23:57;;;;;;;10.60;8.43;;;17.20;88.80;;;;;;5083110;28;20028;-71
2021/07/10 00:26:22;;;;;;;10.27;8.48;;;17.20;89.00;;;;;;5088064;28;20432;-71
2021/07/10 00:28:48;;;;;;;9.32;8.05;;;17.20;89.10;;;;;;5088643;28;20111;-71
2021/07/10 00:31:13;;;;;;;10.93;8.00;;;17.30;89.30;;;;;;5082926;28;20023;-71
2021/07/10 00:33:39;;;;;;;11.25;8.40;;;17.20;89.40;;;;;;5084019;28;20059;-71
2021/07/10 00:36:04;;;;;;;11.55;8.45;;;17.20;89.50;;;;;;5083032;28;20017;-71
2021/07/10 00:38:30;;;;;;;11.18;9.20;;;17.20;89.60;;;;;;5085815;28;20501;-71
2021/07/10 00:40:56;;;;;;;10.40;9.30;;;17.20;89.70;;;;;;5082683;28;20027;-71
2021/07/10 00:43:21;;;;;;;11.23;8.55;;;17.20;89.90;;;;;;5089481;28;20038;-71
2021/07/10 00:45:47;;;;;;;10.25;9.07;;;17.20;90.00;;;;;;5080367;28;20021;-71
2021/07/10 00:48:13;;;;;;;10.43;8.82;;;17.20;90.00;;;;;;5077244;28;20112;-71
2021/07/10 00:50:39;;;;;;;9.85;8.48;;;17.20;90.10;;;;;;5086315;28;20032;-71
2021/07/10 00:53:05;;;;;;;9.88;8.43;;;17.20;90.10;;;;;;5084952;28;20028;-71
2021/07/10 00:55:31;;;;;;;9.00;8.10;;;17.20;90.10;;;;;;5081174;28;20029;-71
2021/07/10 00:57:59;;;;;;;8.98;7.38;;;17.20;90.30;;;;;;5084457;28;20077;-71
2021/07/10 01:00:25;;;;;;;9.30;7.15;;;17.10;90.40;;;;;;5081705;28;20033;-71
2021/07/10 01:02:54;;;;;;;8.25;6.80;;;17.00;90.50;;;;;;5083222;28;20078;-71
2021/07/10 01:05:22;;;;;;;8.10;7.22;;;17.00;90.60;;;;;;5085489;28;20024;-71
2021/07/10 01:07:48;;;;;;;8.70;7.18;;;17.00;90.70;;;;;;5083482;28;20024;-71
2021/07/10 01:10:15;;;;;;;8.30;6.95;;;16.90;90.80;;;;;;5083611;28;20039;-71
2021/07/10 01:12:43;;;;;;;7.47;6.57;;;16.90;90.90;;;;;;5081734;28;20474;-71
2021/07/10 01:15:11;;;;;;;9.88;7.00;;;16.90;91.00;;;;;;5081741;28;20021;-71
2021/07/10 01:17:38;;;;;;;8.38;6.93;;;16.90;91.00;;;;;;5087107;28;20485;-71
2021/07/10 01:20:08;;;;;;;10.63;8.00;;;16.90;91.10;;;;;;5084546;28;20032;-71
2021/07/10 01:22:34;;;;;;;9.93;7.82;;;16.90;91.10;;;;;;5081743;28;20478;-72
2021/07/10 01:25:00;;;;;;;9.60;8.45;;;16.80;91.10;;;;;;5086570;28;20504;-71
2021/07/10 01:27:26;;;;;;;9.70;8.70;;;16.90;91.20;;;;;;5083148;28;20044;-71
2021/07/10 01:29:53;;;;;;;10.27;8.57;;;16.80;91.20;;;;;;5079966;28;20031;-71
2021/07/10 01:32:19;;;;;;;9.68;8.13;;;16.80;91.30;;;;;;5075500;28;20021;-71
2021/07/10 01:34:46;;;;;;;8.75;7.70;;;16.70;91.40;;;;;;5083161;28;20016;-72
2021/07/10 01:37:13;;;;;;;10.38;8.30;;;16.70;91.40;;;;;;5086044;28;20578;-71
2021/07/10 01:39:39;;;;;;;6.15;5.55;;;16.70;91.50;;;;;;5082727;28;20466;-71
2021/07/10 01:42:05;;;;;;;4.68;3.70;;;16.60;91.60;;;;;;5083083;28;20023;-71
2021/07/10 01:44:30;;;;;;;3.38;3.08;;;16.40;91.80;;;;;;5080705;28;20025;-71
2021/07/10 01:46:56;;;;;;;2.55;2.20;;;16.40;92.00;;;;;;5085371;28;20055;-71
2021/07/10 01:49:21;;;;;;;4.95;3.08;;;16.40;92.10;;;;;;5085785;28;20115;-71
2021/07/10 01:51:47;;;;;;;3.47;3.03;;;16.30;92.10;;;;;;5081616;28;20484;-71
2021/07/10 01:54:12;;;;;;;3.28;2.97;;;16.30;92.20;;;;;;5086024;28;20500;-72
2021/07/10 01:56:38;;;;;;;5.13;4.22;;;16.30;92.50;;;;;;5083667;28;20522;-71
2021/07/10 01:59:04;;;;;;;6.72;5.50;;;16.30;92.30;;;;;;5081257;28;20032;-72
2021/07/10 02:01:32;;;;;;;8.05;6.80;;;16.20;92.30;;;;;;5086133;28;20054;-71
2021/07/10 02:03:59;;;;;;;7.68;6.88;;;16.30;92.30;;;;;;5085484;28;20020;-72
2021/07/10 02:06:25;;;;;;;8.77;7.28;;;16.20;92.40;;;;;;5082594;28;20051;-71
2021/07/10 02:08:51;;;;;;;9.05;7.32;;;16.20;92.40;;;;;;5081767;28;20063;-71
2021/07/10 02:11:17;;;;;;;9.35;8.35;;;16.20;92.40;;;;;;5082692;28;20462;-71
2021/07/10 02:13:43;;;;;;;9.13;7.88;;;16.20;92.40;;;;;;5089623;28;20024;-71
2021/07/10 02:16:10;;;;;;;9.70;8.32;;;16.20;92.50;;;;;;5080769;28;20484;-71
2021/07/10 02:18:35;;;;;;;9.63;8.35;;;16.20;92.50;;;;;;5083130;28;20028;-71
2021/07/10 02:21:02;;;;;;;9.88;8.38;;;16.20;92.50;;;;;;5079646;28;20031;-71
2021/07/10 02:23:28;;;;;;;9.52;8.30;;;16.10;92.60;;;;;;5083246;28;20016;-72
2021/07/10 02:25:53;;;;;;;9.57;8.57;;;16.10;92.60;;;;;;5082942;28;20024;-71
2021/07/10 02:28:19;;;;;;;12.38;9.10;;;16.10;92.70;;;;;;5084407;28;20385;-72
2021/07/10 02:30:44;;;;;;;11.05;9.40;;;16.10;92.70;;;;;;5088278;28;20552;-72
2021/07/10 02:33:10;;;;;;;12.40;10.55;;;16.00;92.70;;;;;;5084217;28;20114;-71
2021/07/10 02:35:36;;;;;;;10.77;9.15;;;16.00;92.80;;;;;;5089702;28;20024;-72
2021/07/10 02:38:01;;;;;;;12.10;9.52;;;16.00;93.00;;;;;;5078521;28;20079;-71
2021/07/10 02:40:27;;;;;;;10.68;9.35;;;16.00;92.80;;;;;;5081178;28;20441;-71
2021/07/10 02:42:54;;;;;;;11.68;9.13;;;16.00;92.90;;;;;;5078328;28;20021;-71
2021/07/10 02:45:20;;;;;;;11.43;10.00;;;15.90;92.90;;;;;;5083458;28;20016;-71
2021/07/10 02:47:46;;;;;;;11.13;9.63;;;15.90;93.00;;;;;;5080124;28;20509;-71
2021/07/10 02:50:16;;;;;;;18.65;7.45;;;15.90;93.00;;;;;;5080246;28;20028;-71
2021/07/10 02:52:42;;;;;;;8.45;7.10;;;15.80;93.10;;;;;;5084649;28;20028;-71
2021/07/10 02:55:09;;;;;;;7.63;6.72;;;15.80;93.20;;;;;;5077366;28;20024;-71
2021/07/10 02:57:35;;;;;;;5.68;5.07;;;15.70;93.30;;;;;;5080210;28;20116;-71
2021/07/10 03:00:01;;;;;;;6.68;5.40;;;15.70;93.30;;;;;;5082420;28;20091;-71
2021/07/10 03:02:26;;;;;;;5.03;4.53;;;15.70;93.30;;;;;;5081687;28;20008;-71
2021/07/10 03:04:53;;;;;;;29.63;4.57;;;15.60;93.40;;;;;;5083705;28;20469;-71
2021/07/10 03:07:19;;;;;;;3.70;3.25;;;15.50;93.60;;;;;;5081926;28;20389;-71
2021/07/10 03:09:44;;;;;;;8.68;3.00;;;15.50;93.70;;;;;;5086085;28;20039;-71
2021/07/10 03:12:10;;;;;;;2.33;1.77;;;15.40;93.70;;;;;;5088234;28;20492;-71
2021/07/10 03:14:35;;;;;;;7.13;2.20;;;15.40;93.80;;;;;;5082560;28;20031;-71
2021/07/10 03:17:01;;;;;;;2.47;2.28;;;15.40;93.90;;;;;;5089382;28;20023;-71
2021/07/10 03:19:26;;;;;;;2.58;2.38;;;15.30;93.90;;;;;;5086010;28;20027;-71
2021/07/10 03:21:52;;;;;;;3.80;3.42;;;15.30;94.00;;;;;;5085972;28;20032;-71
2021/07/10 03:24:17;;;;;;;4.90;4.40;;;15.30;94.10;;;;;;5085048;28;20028;-71
2021/07/10 03:26:43;;;;;;;5.32;4.68;;;15.40;94.10;;;;;;5087289;28;20024;-71
2021/07/10 03:29:08;;;;;;;6.03;5.40;;;15.40;94.10;;;;;;5083311;28;20029;-71
2021/07/10 03:31:34;;;;;;;7.63;6.15;;;15.40;94.00;;;;;;5082170;28;20493;-71
2021/07/10 03:34:00;;;;;;;6.30;5.65;;;15.40;94.00;;;;;;5089294;28;20035;-71
2021/07/10 03:36:26;;;;;;;11.32;7.28;;;15.40;94.00;;;;;;5086713;28;20040;-71
2021/07/10 03:38:52;;;;;;;8.00;7.20;;;15.40;94.10;;;;;;5082793;28;20473;-72
2021/07/10 03:41:18;;;;;;;8.80;7.90;;;15.40;94.10;;;;;;5087593;28;20432;-72
2021/07/10 03:43:44;;;;;;;10.18;8.57;;;15.40;94.20;;;;;;5086852;28;20473;-72
2021/07/10 03:46:10;;;;;;;10.40;9.18;;;15.30;94.20;;;;;;5081177;28;20082;-72
2021/07/10 03:48:37;;;;;;;10.27;8.80;;;15.30;94.20;;;;;;5086259;28;20028;-72
2021/07/10 03:51:04;;;;;;;11.25;9.43;;;15.30;94.30;;;;;;5088902;28;20613;-72
2021/07/10 03:53:29;;;;;;;12.05;9.98;;;15.40;94.30;;;;;;5083826;28;20032;-72
2021/07/10 03:55:55;;;;;;;11.50;9.45;;;15.30;94.30;;;;;;5088110;28;20016;-72
2021/07/10 03:58:20;;;;;;;10.63;9.18;;;15.30;94.40;;;;;;5089355;28;20027;-72
2021/07/10 04:00:46;;;;;;;11.70;9.05;;;15.30;94.40;;;;;;5084207;28;20057;-72
2021/07/10 04:03:12;;;;;;;10.93;9.60;;;15.30;94.40;;;;;;5086739;28;20477;-72
2021/07/10 04:05:37;;;;;;;11.82;9.55;;;15.30;94.50;;;;;;5085956;28;20031;-72
2021/07/10 04:08:03;;;;;;;11.20;8.95;;;15.30;94.50;;;;;;5087988;28;20036;-72
2021/07/10 04:10:29;;;;;;;11.73;9.73;;;15.30;94.60;;;;;;5085711;28;20017;-71
2021/07/10 04:12:54;;;;;;;13.45;10.25;;;15.30;94.60;;;;;;5088295;28;20465;-72
2021/07/10 04:15:20;;;;;;;11.15;9.20;;;15.40;94.60;;;;;;5084415;28;20024;-72
2021/07/10 04:17:47;;;;;;;9.77;7.85;;;15.40;94.70;;;;;;5084807;28;20024;-72
2021/07/10 04:20:14;;;;;;;8.55;6.93;;;15.40;94.70;;;;;;5083840;28;20027;-72
2021/07/10 04:22:40;;;;;;;9.35;7.75;;;15.40;94.80;;;;;;5087456;28;20028;-72
2021/07/10 04:25:09;;;;;;;8.85;6.72;;;15.40;94.80;;;;;;5085839;28;20017;-72
2021/07/10 04:27:38;;;;;;;8.13;7.18;;;15.40;94.80;;;;;;5082320;28;20384;-72
2021/07/10 04:30:05;;;;;;;8.15;7.30;;;15.40;94.90;;;;;;5075717;28;20024;-72
2021/07/10 04:32:31;;;;;;;10.43;8.18;;;15.40;94.90;;;;;;5090402;28;20028;-72
2021/07/10 04:34:57;;;;;;;10.88;8.13;;;15.40;94.90;;;;;;5076602;28;20027;-72
2021/07/10 04:37:23;;;;;;;10.07;8.68;;;15.40;94.90;;;;;;5087600;28;20052;-72
2021/07/10 04:39:49;;;;;;;14.23;10.25;;;15.50;95.00;;;;;;5085509;28;20027;-71
2021/07/10 04:42:14;;;;;;;13.10;9.60;;;15.50;95.00;;;;;;5083177;28;20024;-71
2021/07/10 04:44:40;;;;;;;13.35;9.52;;;15.50;95.10;;;;;;5084962;28;20474;-71
2021/07/10 04:47:06;;;;;;;15.00;10.98;;;15.60;95.10;;;;;;5088414;28;20056;-71
2021/07/10 04:49:32;;;;;;;15.55;10.27;;;15.60;95.20;;;;;;5087403;28;20070;-71
2021/07/10 04:51:58;;;;;;;14.68;11.70;;;15.60;95.30;;;;;;5086862;28;20028;-72
2021/07/10 04:54:23;;;;;;;13.82;11.40;;;15.70;95.50;;;;;;5087097;28;20017;-72
2021/07/10 04:56:49;;;;;;;13.05;11.65;;;15.70;95.50;;;;;;5084701;28;20020;-72
2021/07/10 04:59:14;;;;;;;16.10;11.45;;;15.70;95.60;;;;;;5086065;28;20504;-71
2021/07/10 05:01:40;;;;;;;12.90;10.50;;;15.70;95.70;;;;;;5084412;28;20036;-71
2021/07/10 05:04:05;;;;;;;16.77;10.25;;;15.70;95.80;;;;;;5084424;28;20036;-71
2021/07/10 05:06:31;;;;;;;11.48;10.32;;;15.70;95.90;;;;;;5088080;28;20024;-71
2021/07/10 05:08:57;;;;;;;11.48;9.93;;;15.80;96.00;;;;;;5082750;28;20103;-72
2021/07/10 05:11:22;;;;;;;11.98;10.30;;;15.80;96.10;;;;;;5085130;28;20035;-71
2021/07/10 05:13:48;;;;;;;11.30;9.93;;;15.80;96.20;;;;;;5083279;28;20016;-71
2021/07/10 05:16:13;;;;;;;17.02;10.18;;;15.90;96.30;;;;;;5084247;28;20101;-71
2021/07/10 05:18:39;;;;;;;11.27;10.07;;;15.90;96.30;;;;;;5086488;28;20066;-71
2021/07/10 05:21:04;;;;;;;12.43;11.13;;;15.90;96.40;;;;;;5081196;28;20108;-71
2021/07/10 05:23:30;;;;;;;13.02;11.10;;;16.00;96.70;;;;;;5084088;28;20059;-71
2021/07/10 05:25:56;;;;;;;12.65;11.30;;;16.10;96.50;;;;;;5083533;28;20029;-71
2021/07/10 05:28:21;;;;;;;13.77;11.15;;;16.10;96.50;;;;;;5090989;28;20491;-71
2021/07/10 05:30:47;;;;;;;11.40;10.30;;;16.20;96.60;;;;;;5093377;28;20054;-71
2021/07/10 05:33:15;;;;;;;12.93;10.40;;;16.30;96.70;;;;;;5093971;28;20016;-72
2021/07/10 05:35:41;;;;;;;12.48;9.23;;;16.30;96.70;;;;;;5092721;28;20024;-71
2021/07/10 05:38:06;;;;;;;11.85;9.68;;;16.40;96.80;;;;;;5093950;28;20051;-72
2021/07/10 05:40:32;;;;;;;10.70;9.60;;;16.50;96.80;;;;;;5093716;28;20042;-72
2021/07/10 05:42:57;;;;;;;13.18;10.10;;;16.60;96.80;;;;;;5079459;28;20077;-71
2021/07/10 05:45:23;;;;;;;13.05;9.43;;;16.70;96.90;;;;;;5093949;28;20499;-71
2021/07/10 05:47:48;;;;;;;14.38;12.48;;;16.80;96.90;;;;;;5093754;28;20023;-71
2021/07/10 05:50:14;;;;;;;14.73;13.10;;;16.80;96.90;;;;;;5093708;28;20023;-71
2021/07/10 05:52:40;;;;;;;13.32;11.90;;;16.90;97.00;;;;;;5092241;28;20544;-72
2021/07/10 05:55:06;;;;;;;14.40;11.90;;;17.00;97.00;;;;;;5092241;28;20016;-71
2021/07/10 05:57:32;;;;;;;20.67;15.15;;;17.10;97.10;;;;;;5093759;28;20575;-72
2021/07/10 05:59:58;;;;;;;19.83;15.32;;;17.10;97.10;;;;;;5093594;28;20145;-72
2021/07/10 06:02:23;;;;;;;24.25;16.85;;;17.20;97.20;;;;;;5092263;28;20070;-71
2021/07/10 06:04:49;;;;;;;22.70;16.70;;;17.30;97.20;;;;;;5093391;28;20024;-72
2021/07/10 06:07:14;;;;;;;22.73;17.63;;;17.30;97.30;;;;;;5093625;28;20034;-71
2021/07/10 06:09:40;;;;;;;26.63;19.23;;;17.40;97.30;;;;;;5093242;28;20067;-71
2021/07/10 06:12:06;;;;;;;23.60;17.77;;;17.40;97.40;;;;;;5093261;28;20469;-71
2021/07/10 06:14:32;;;;;;;27.65;19.92;;;17.50;97.40;;;;;;5093381;28;20105;-72
2021/07/10 06:16:59;;;;;;;24.73;17.67;;;17.50;97.40;;;;;;5092984;28;20031;-71
2021/07/10 06:19:25;;;;;;;22.50;16.67;;;17.60;97.50;;;;;;5093002;28;20036;-72
2021/07/10 06:21:51;;;;;;;28.02;20.25;;;17.70;97.50;;;;;;5092953;28;20431;-72
2021/07/10 06:24:16;;;;;;;26.23;18.75;;;17.70;97.60;;;;;;5091927;28;20733;-71
2021/07/10 06:26:42;;;;;;;27.45;19.10;;;17.70;97.50;;;;;;5091540;28;20088;-72
2021/07/10 06:29:07;;;;;;;29.30;20.63;;;17.70;97.60;;;;;;5091575;28;20069;-71
2021/07/10 06:31:33;;;;;;;28.25;19.48;;;17.80;97.60;;;;;;5093066;28;20020;-72
2021/07/10 06:34:03;;;;;;;26.15;18.23;;;17.80;97.60;;;;;;5092955;28;20026;-72
2021/07/10 06:36:28;;;;;;;31.08;20.02;;;17.80;97.70;;;;;;5092894;28;20044;-71
2021/07/10 06:38:54;;;;;;;29.48;20.10;;;17.80;97.70;;;;;;5092407;28;20508;-72
2021/07/10 06:41:20;;;;;;;25.30;17.25;;;17.90;97.70;;;;;;5091900;28;20035;-72
2021/07/10 06:43:46;;;;;;;26.85;19.10;;;18.00;97.80;;;;;;5089895;28;20028;-72
2021/07/10 06:46:12;;;;;;;26.38;17.73;;;18.10;97.80;;;;;;5092381;28;20028;-72
2021/07/10 06:48:38;;;;;;;27.08;17.90;;;18.10;97.70;;;;;;5092620;28;20085;-71
2021/07/10 06:51:04;;;;;;;26.75;18.80;;;18.20;97.70;;;;;;5092696;28;20028;-72
2021/07/10 06:53:30;;;;;;;29.80;19.83;;;18.30;97.60;;;;;;5092933;28;20084;-71
2021/07/10 06:55:56;;;;;;;26.30;18.25;;;18.40;97.60;;;;;;5091404;28;20031;-72
2021/07/10 06:58:22;;;;;;;22.77;16.13;;;18.50;97.50;;;;;;5092758;28;20016;-72
2021/07/10 07:00:47;;;;;;;24.15;18.10;;;18.50;97.30;;;;;;5092726;28;20104;-72
2021/07/10 07:03:13;;;;;;;26.20;17.65;;;18.60;97.20;;;;;;5092284;28;20396;-72
2021/07/10 07:05:39;;;;;;;20.58;15.90;;;18.70;97.10;;;;;;5092164;28;20028;-72
2021/07/10 07:08:04;;;;;;;23.73;16.02;;;18.80;96.80;;;;;;5092144;28;20024;-72
2021/07/10 07:10:30;;;;;;;24.55;17.05;;;18.90;96.60;;;;;;5092290;28;20026;-72
2021/07/10 07:12:56;;;;;;;24.45;16.95;;;19.00;96.40;;;;;;5092021;28;20408;-72
2021/07/10 07:15:21;;;;;;;27.85;18.90;;;19.10;96.20;;;;;;5092192;28;20081;-71
2021/07/10 07:17:47;;;;;;;23.83;16.90;;;19.20;95.80;;;;;;5084690;28;20028;-71
2021/07/10 07:20:14;;;;;;;17.00;13.73;;;19.30;95.60;;;;;;5091838;28;20060;-72
2021/07/10 07:22:43;;;;;;;20.98;15.35;;;19.40;95.50;;;;;;5079137;28;20484;-71
2021/07/10 07:25:10;;;;;;;17.65;13.55;;;19.50;95.20;;;;;;5080427;28;20031;-72
2021/07/10 07:27:35;;;;;;;19.85;13.90;;;19.60;95.10;;;;;;5092340;28;20031;-71
2021/07/10 07:30:00;;;;;;;18.15;13.32;;;19.60;94.90;;;;;;5092012;28;20031;-71
2021/07/10 07:32:27;;;;;;;16.10;11.77;;;19.70;94.70;;;;;;5092538;28;20056;-72
2021/07/10 07:34:52;;;;;;;15.05;11.73;;;19.80;94.60;;;;;;5092150;28;20024;-71
2021/07/10 07:37:18;;;;;;;15.77;11.52;;;19.80;94.40;;;;;;5091019;28;20036;-71
2021/07/10 07:39:46;;;;;;;14.52;10.80;;;19.90;94.40;;;;;;5090381;28;20024;-71
2021/07/10 07:42:15;;;;;;;17.63;13.25;;;19.90;94.30;;;;;;5071748;28;20021;-72
2021/07/10 07:44:41;;;;;;;14.27;11.00;;;20.00;94.10;;;;;;5071419;28;20024;-71
2021/07/10 07:47:09;;;;;;;15.05;10.55;;;20.10;94.00;;;;;;5077259;28;20032;-72
2021/07/10 07:49:34;;;;;;;15.23;10.18;;;20.20;93.60;;;;;;5092113;28;20028;-72
2021/07/10 07:51:59;;;;;;;11.13;8.68;;;20.30;93.40;;;;;;5090427;28;20020;-71
2021/07/10 07:54:27;;;;;;;15.45;11.57;;;20.30;93.20;;;;;;5094122;28;20023;-71
2021/07/10 07:56:53;;;;;;;13.43;10.55;;;20.50;92.90;;;;;;5094507;28;20469;-71
2021/07/10 07:59:18;;;;;;;12.35;9.50;;;20.50;92.70;;;;;;5077564;28;20017;-71
2021/07/10 08:01:44;;;;;;;14.90;10.52;;;20.60;92.60;;;;;;5073867;28;20465;-71
2021/07/10 08:04:09;;;;;;;10.63;8.27;;;20.60;92.20;;;;;;5078289;28;20176;-71
2021/07/10 08:06:35;;;;;;;10.32;8.60;;;20.70;92.00;;;;;;5086506;28;20039;-71
2021/07/10 08:09:00;;;;;;;12.55;9.65;;;20.80;91.80;;;;;;5084888;28;20116;-72
2021/07/10 08:11:26;;;;;;;12.95;8.43;;;20.90;91.60;;;;;;5075894;28;20424;-71
2021/07/10 08:13:51;;;;;;;10.05;7.35;;;20.90;91.40;;;;;;5090977;28;20024;-71
2021/07/10 08:16:17;;;;;;;11.48;7.82;;;21.00;91.30;;;;;;5092409;28;20077;-72
2021/07/10 08:18:43;;;;;;;9.05;7.82;;;21.10;91.20;;;;;;5092411;28;20131;-72
2021/07/10 08:21:08;;;;;;;10.40;8.15;;;21.10;91.00;;;;;;5091998;28;20016;-72
2021/07/10 08:23:34;;;;;;;9.35;6.95;;;21.20;90.80;;;;;;5090949;28;20103;-72
2021/07/10 08:26:00;;;;;;;11.30;8.27;;;21.30;90.70;;;;;;5074697;28;20489;-72
2021/07/10 08:28:26;;;;;;;10.25;7.35;;;21.40;90.30;;;;;;5075153;28;20029;-71
2021/07/10 08:30:52;;;;;;;9.50;7.13;;;21.50;90.10;;;;;;5073908;28;20028;-71
2021/07/10 08:33:17;;;;;;;13.23;8.30;;;21.60;90.00;;;;;;5075561;28;20431;-71
2021/07/10 08:35:43;;;;;;;9.70;7.43;;;21.70;89.20;;;;;;5095272;28;20496;-71
2021/07/10 08:38:09;;;;;;;10.60;6.95;;;21.80;88.30;;;;;;5086991;28;20123;-71
2021/07/10 08:40:35;;;;;;;11.05;6.65;;;21.80;87.60;;;;;;5051939;28;20106;-71
2021/07/10 08:43:01;;;;;;;6.63;5.32;;;22.00;87.30;;;;;;5093560;28;20059;-71
2021/07/10 08:45:32;;;;;;;8.20;5.93;;;22.00;86.80;;;;;;5093544;28;20541;-71
2021/07/10 08:47:58;;;;;;;7.55;5.70;;;22.10;86.40;;;;;;5093698;28;20043;-71
2021/07/10 08:50:24;;;;;;;6.95;5.68;;;22.20;86.20;;;;;;5095133;28;20016;-71
2021/07/10 08:52:51;;;;;;;8.48;6.03;;;22.30;85.80;;;;;;5094833;28;20392;-71
2021/07/10 08:55:16;;;;;;;7.20;5.60;;;22.40;85.10;;;;;;5093321;28;20490;-71
2021/07/10 08:57:42;;;;;;;10.02;7.05;;;22.40;84.70;;;;;;5091622;28;20032;-71
2021/07/10 09:00:13;;;;;;;7.78;5.85;;;22.50;83.60;;;;;;5045420;28;20561;-71
2021/07/10 09:02:47;;;;;;;7.53;4.95;;;22.50;83.10;;;;;;5056810;28;20516;-71
2021/07/10 09:05:14;;;;;;;5.93;4.95;;;22.60;82.80;;;;;;5077963;28;20029;-72
2021/07/10 09:08:19;;;;;;;7.10;5.63;;;22.70;82.50;;;;;;5072809;28;20116;-71
2021/07/10 09:10:54;;;;;;;6.18;5.50;;;22.90;81.60;;;;;;5079413;28;20024;-70
2021/07/10 09:13:21;;;;;;;8.15;6.10;;;22.90;81.50;;;;;;5079254;28;20115;-70
2021/07/10 09:15:47;;;;;;;7.32;4.95;;;23.00;80.90;;;;;;5079646;28;20481;-70
2021/07/10 09:18:15;;;;;;;5.18;4.30;;;23.10;80.80;;;;;;5077665;28;20133;-70
2021/07/10 09:20:43;;;;;;;6.53;5.05;;;23.20;80.50;;;;;;5074914;28;20016;-70
2021/07/10 09:23:38;;;;;;;5.13;4.20;;;23.30;80.00;;;;;;5080784;28;20366;-70
2021/07/10 09:26:26;;;;;;;4.32;3.88;;;23.30;79.60;;;;;;5073393;28;20017;-70
2021/07/10 09:29:15;;;;;;;5.72;4.78;;;23.40;79.40;;;;;;5084418;28;20135;-70
2021/07/10 09:31:43;;;;;;;6.07;4.20;;;23.50;78.70;;;;;;5083485;28;20038;-70
2021/07/10 09:34:12;;;;;;;6.85;5.07;;;23.40;78.50;;;;;;5084817;28;20107;-70
2021/07/10 09:36:53;;;;;;;5.68;4.40;;;23.30;78.20;;;;;;5073098;28;20090;-71
2021/07/10 09:39:20;;;;;;;6.50;4.65;;;23.50;77.80;;;;;;5072080;28;20481;-70
2021/07/10 09:41:45;;;;;;;7.22;4.78;;;23.40;77.50;;;;;;5073076;28;20036;-71
2021/07/10 09:44:15;;;;;;;5.38;3.92;;;23.50;77.20;;;;;;5089913;28;20031;-70
2021/07/10 09:46:40;;;;;;;;;;;23.70;77.00;;;;;;5094205;28;20024;-70
2021/07/10 09:49:26;;;;;;;6.25;4.85;;;23.80;76.80;;;;;;5093870;28;19968;-70
2021/07/10 09:51:59;;;;;;;8.13;5.30;;;23.90;76.20;;;;;;5087302;28;20024;-70
2021/07/10 09:54:47;;;;;;;4.85;4.20;;;24.00;75.60;;;;;;5073507;28;20090;-70
2021/07/10 09:57:26;;;;;;;5.82;4.32;;;24.10;75.50;;;;;;5073430;28;20025;-70
2021/07/10 09:59:54;;;;;;;4.80;4.07;;;24.10;75.40;;;;;;5072217;28;20027;-70
2021/07/10 10:02:29;;;;;;;7.60;5.25;;;24.20;75.40;;;;;;5072475;28;20119;-70
2021/07/10 10:05:16;;;;;;;9.85;7.22;;;24.20;74.80;;;;;;5071335;28;20024;-70
2021/07/10 10:07:53;;;;;;;10.90;7.80;;;24.00;74.20;;;;;;5072751;28;20020;-70
2021/07/10 10:10:26;;;;;;;6.32;4.50;;;23.70;74.80;;;;;;5072798;28;20029;-70
2021/07/10 10:13:09;;;;;;;5.80;4.78;;;23.70;75.30;;;;;;5074446;28;20043;-70
2021/07/10 10:15:39;;;;;;;4.55;4.03;;;24.00;74.80;;;;;;5072564;28;20054;-70
2021/07/10 10:18:06;;;;;;;5.38;4.25;;;24.20;74.30;;;;;;5071792;28;20021;-70
2021/07/10 10:20:33;;;;;;;6.40;5.15;;;24.40;74.20;;;;;;5071835;28;20051;-70
2021/07/10 10:23:00;;;;;;;6.97;5.40;;;24.50;73.40;;;;;;5071846;28;20028;-70
2021/07/10 10:25:26;;;;;;;8.70;4.60;;;24.60;73.10;;;;;;5072839;28;20398;-71
2021/07/10 10:27:52;;;;;;;5.53;4.78;;;24.70;73.50;;;;;;5072904;28;20027;-71
2021/07/10 10:30:20;;;;;;;7.53;6.30;;;24.80;72.70;;;;;;5071596;28;20020;-71
2021/07/10 10:32:46;;;;;;;8.38;5.88;;;24.90;72.10;;;;;;5072614;28;20028;-71
2021/07/10 10:35:13;;;;;;;6.25;5.20;;;24.90;71.90;;;;;;5071630;28;20115;-71
2021/07/10 10:37:40;;;;;;;5.82;4.95;;;25.10;71.60;;;;;;5071329;28;20049;-71
2021/07/10 10:40:20;;;;;;;5.47;4.97;;;25.20;70.90;;;;;;5072791;28;20089;-71
2021/07/10 10:42:52;;;;;;;9.25;7.30;;;25.30;70.10;;;;;;5072624;28;20024;-71
2021/07/10 10:45:29;;;;;;;8.88;7.50;;;25.10;69.70;;;;;;5072643;28;20031;-71
2021/07/10 10:47:54;;;;;;;7.55;5.93;;;24.90;70.10;;;;;;5071790;28;20040;-71
2021/07/10 10:50:32;;;;;;;7.30;5.72;;;24.80;71.30;;;;;;5072732;28;20033;-71
2021/07/10 10:52:58;;;;;;;9.60;7.45;;;24.80;71.60;;;;;;5076594;28;20024;-71
2021/07/10 10:55:32;;;;;;;16.23;10.82;;;24.60;72.10;;;;;;5072482;28;20017;-71
2021/07/10 10:58:15;;;;;;;10.15;8.73;;;24.30;71.30;;;;;;5071330;28;20446;-71
2021/07/10 11:00:49;;;;;;;10.85;8.73;;;24.00;71.80;;;;;;5072044;28;20060;-71
2021/07/10 11:03:19;;;;;;;11.00;9.07;;;23.90;71.80;;;;;;5072275;28;20027;-71
2021/07/10 11:05:49;;;;;;;6.55;5.22;;;23.80;71.20;;;;;;5073240;28;20077;-71
2021/07/10 11:08:17;;;;;;;8.43;6.25;;;24.00;71.40;;;;;;5084654;28;20033;-71
2021/07/10 11:10:47;;;;;;;8.47;6.60;;;24.20;70.70;;;;;;5071873;28;20028;-71
2021/07/10 11:13:39;;;;;;;8.30;6.95;;;24.20;70.90;;;;;;5071996;28;20250;-71
2021/07/10 11:16:08;;;;;;;9.13;7.57;;;24.40;70.40;;;;;;5070462;28;20017;-71
2021/07/10 11:18:58;;;;;;;6.03;5.40;;;24.20;69.90;;;;;;5071796;28;20033;-71
2021/07/10 11:21:39;;;;;;;5.97;5.15;;;24.50;69.70;;;;;;5071679;28;20032;-71
2021/07/10 11:24:17;;;;;;;6.03;5.00;;;24.90;69.60;;;;;;5070646;28;20497;-71
2021/07/10 11:26:56;;;;;;;5.75;4.43;;;25.10;69.10;;;;;;5072282;28;20528;-71
2021/07/10 11:29:25;;;;;;;5.50;4.57;;;25.50;68.60;;;;;;5089761;28;20050;-71
2021/07/10 11:31:51;;;;;;;8.10;6.47;;;25.80;67.90;;;;;;5091845;28;20035;-71
2021/07/10 11:34:33;;;;;;;7.95;5.45;;;25.90;66.30;;;;;;5091844;28;20345;-71
2021/07/10 11:37:11;;;;;;;4.80;4.25;;;25.90;66.40;;;;;;5091591;28;20053;-71
2021/07/10 11:39:38;;;;;;;8.15;7.10;;;26.10;66.30;;;;;;5091867;28;20119;-71
2021/07/10 11:42:19;;;;;;;7.50;5.50;;;26.10;64.30;;;;;;5076122;28;20058;-71
2021/07/10 11:44:51;;;;;;;7.82;7.00;;;26.20;64.60;;;;;;5075953;28;20021;-71
2021/07/10 11:47:34;;;;;;;7.00;4.80;;;25.90;64.00;;;;;;5087072;28;20028;-71
2021/07/10 11:50:06;;;;;;;4.85;4.15;;;26.10;65.00;;;;;;5075487;28;20020;-72
2021/07/10 11:52:32;;;;;;;7.30;5.55;;;26.40;65.50;;;;;;5075569;28;20032;-71
2021/07/10 11:55:01;;;;;;;10.43;7.93;;;26.50;63.70;;;;;;5075422;28;20025;-72
2021/07/10 11:57:36;;;;;;;4.03;3.63;;;26.10;62.00;;;;;;5074762;28;20035;-72
2021/07/10 12:00:05;;;;;;;6.10;5.50;;;26.20;63.20;;;;;;5075142;28;20051;-72
2021/07/10 12:02:35;;;;;;;4.60;3.92;;;26.50;63.30;;;;;;5075028;28;20024;-72
2021/07/10 12:05:11;;;;;;;5.63;3.92;;;26.70;62.80;;;;;;5075038;28;20021;-73
2021/07/10 12:07:54;;;;;;;4.47;3.92;;;27.00;62.40;;;;;;5091026;28;20152;-72
2021/07/10 12:10:19;;;;;;;5.45;3.97;;;27.40;61.60;;;;;;5083615;28;20043;-72
2021/07/10 12:13:07;;;;;;;4.13;3.60;;;27.60;61.40;;;;;;5086679;28;20473;-73
2021/07/10 12:15:37;;;;;;;5.97;3.53;;;28.00;60.80;;;;;;5083480;28;20024;-73
2021/07/10 12:18:03;;;;;;;;;;;28.20;60.10;;;;;;5075864;28;20024;-74
2021/07/10 12:20:38;;;;;;;2.78;2.47;;;28.40;60.10;;;;;;5073889;28;19943;-73
2021/07/10 12:23:07;;;;;;;3.28;2.85;;;28.50;59.10;;;;;;5075366;28;20039;-74
2021/07/10 12:25:51;;;;;;;;;;;28.70;58.70;;;;;;5089997;28;20055;-73
2021/07/10 12:28:27;;;;;;;2.65;2.28;;;28.80;59.00;;;;;;5095426;28;19919;-73
2021/07/10 12:30:54;;;;;;;6.75;2.80;;;29.00;58.60;;;;;;5095375;28;20035;-73
2021/07/10 12:33:46;;;;;;;2.40;2.00;;;29.10;58.50;;;;;;5093856;28;20088;-73
2021/07/10 12:36:31;;;;;;;2.33;2.13;;;29.40;58.40;;;;;;5090664;28;20501;-73
2021/07/10 12:39:01;;;;;;;4.22;3.83;;;29.60;57.90;;;;;;5093996;28;20477;-73
2021/07/10 12:41:36;;;;;;;4.40;3.60;;;29.50;56.90;;;;;;5092563;28;20024;-73
2021/07/10 12:44:34;;;;;;;6.78;5.22;;;29.20;56.10;;;;;;5095275;28;20035;-73
2021/07/10 12:47:08;;;;;;;7.10;5.40;;;28.50;55.40;;;;;;5090760;28;20443;-73